createdAt,value
2022-09-01T00:01:16.560Z,101381.63
2022-09-01T00:04:02.154Z,101385.91
2022-09-01T00:06:47.722Z,101380.66
2022-09-01T00:09:34.050Z,101381.47
2022-09-01T00:12:19.117Z,101385.84
2022-09-01T00:15:06.590Z,101379.78
2022-09-01T00:17:51.940Z,101379.78
2022-09-01T00:20:37.322Z,101378.84
2022-09-01T00:23:22.480Z,101388.44
2022-09-01T00:26:08.080Z,101384.06
2022-09-01T00:28:53.674Z,101388.41
2022-09-01T00:31:39.951Z,101380.56
2022-09-01T00:34:25.253Z,101391.03
2022-09-01T00:37:10.343Z,101394.47
2022-09-01T00:39:56.042Z,101388.44
2022-09-01T00:42:41.894Z,101388.41
2022-09-01T00:45:27.264Z,101388.38
2022-09-01T00:48:12.432Z,101392.72
2022-09-01T00:51:00.253Z,101386.59
2022-09-01T00:53:45.938Z,101399.56
2022-09-01T00:56:33.465Z,101383.09
2022-09-01T00:59:22.041Z,101373.56
2022-09-01T01:02:07.303Z,101386.53
2022-09-01T01:04:52.605Z,101377.03
2022-09-01T01:07:38.313Z,101370.91
2022-09-01T01:10:24.357Z,101384.75
2022-09-01T01:13:12.181Z,101396.81
2022-09-01T01:15:58.032Z,101379.41
2022-09-01T01:18:43.467Z,101381.22
2022-09-01T01:21:38.854Z,101382.81
2022-09-01T01:24:30.983Z,101376.75
2022-09-01T01:27:16.286Z,101392.31
2022-09-01T01:30:04.518Z,101381.03
2022-09-01T01:32:54.673Z,101395.66
2022-09-01T01:35:40.784Z,101392.31
2022-09-01T01:38:26.348Z,101393.16
2022-09-01T01:41:12.226Z,101390.53
2022-09-01T01:44:02.766Z,101379.25
2022-09-01T01:46:51.044Z,101388.63
2022-09-01T01:49:36.391Z,101397.19
2022-09-01T01:52:21.710Z,101400.63
2022-09-01T01:55:11.534Z,101407.50
2022-09-01T01:57:58.715Z,101405.78
2022-09-01T02:00:44.143Z,101396.28
2022-09-01T02:03:32.606Z,101404.16
2022-09-01T02:06:17.805Z,101404.06
2022-09-01T02:09:03.712Z,101408.31
2022-09-01T02:11:48.845Z,101397.84
2022-09-01T02:14:34.242Z,101415.16
2022-09-01T02:17:19.339Z,101403.97
2022-09-01T02:20:04.357Z,101415.03
2022-09-01T02:22:49.671Z,101415.94
2022-09-01T02:25:35.552Z,101408.13
2022-09-01T02:28:22.843Z,101415.00
2022-09-01T02:31:10.072Z,101411.41
2022-09-01T02:33:55.455Z,101420.00
2022-09-01T02:36:43.466Z,101419.09
2022-09-01T02:39:31.149Z,101419.06
2022-09-01T02:42:16.218Z,101424.94
2022-09-01T02:45:02.633Z,101417.16
2022-09-01T02:47:47.963Z,101410.13
2022-09-01T02:50:33.574Z,101418.97
2022-09-01T02:53:18.875Z,101414.56
2022-09-01T02:56:06.192Z,101406.03
2022-09-01T02:58:51.126Z,101404.28
2022-09-01T03:01:36.116Z,101418.78
2022-09-01T03:04:23.421Z,101409.25
2022-09-01T03:07:08.836Z,101404.88
2022-09-01T03:09:53.821Z,101408.31
2022-09-01T03:12:38.757Z,101411.56
2022-09-01T03:15:24.225Z,101422.69
2022-09-01T03:18:12.253Z,101425.16
2022-09-01T03:20:57.572Z,101414.91
2022-09-01T03:23:47.294Z,101406.28
2022-09-01T03:26:32.356Z,101412.94
2022-09-01T03:29:18.144Z,101411.94
2022-09-01T03:32:04.552Z,101411.06
2022-09-01T03:34:50.021Z,101420.56
2022-09-01T03:37:35.516Z,101415.41
2022-09-01T03:40:21.177Z,101417.00
2022-09-01T03:43:09.433Z,101417.88
2022-09-01T03:45:55.928Z,101420.47
2022-09-01T03:48:40.859Z,101414.41
2022-09-01T03:51:26.485Z,101409.34
2022-09-01T03:54:12.241Z,101416.91
2022-09-01T03:57:00.396Z,101419.50
2022-09-01T03:59:45.399Z,101418.50
2022-09-01T04:02:30.818Z,101419.13
2022-09-01T04:05:17.654Z,101430.72
2022-09-01T04:08:05.991Z,101424.28
2022-09-01T04:10:54.395Z,101425.25
2022-09-01T04:13:41.445Z,101429.78
2022-09-01T04:16:29.850Z,101449.59
2022-09-01T04:19:18.274Z,101454.00
2022-09-01T04:22:04.273Z,101466.84
2022-09-01T04:24:49.218Z,101478.25
2022-09-01T04:27:34.267Z,101460.69
2022-09-01T04:30:19.323Z,101465.75
2022-09-01T04:33:04.592Z,101471.66
2022-09-01T04:35:50.748Z,101468.31
2022-09-01T04:38:35.883Z,101469.22
2022-09-01T04:41:25.191Z,101465.19
2022-09-01T04:44:10.331Z,101460.91
2022-09-01T04:46:56.158Z,101455.88
2022-09-01T04:49:41.251Z,101450.84
2022-09-01T04:52:27.497Z,101454.84
2022-09-01T04:55:13.547Z,101449.25
2022-09-01T04:58:00.790Z,101449.13
2022-09-01T05:00:48.621Z,101459.19
2022-09-01T05:03:33.725Z,101453.97
2022-09-01T05:06:20.057Z,101448.78
2022-09-01T05:09:05.545Z,101442.47
2022-09-01T05:11:51.462Z,101434.38
2022-09-01T05:14:42.445Z,101428.88
2022-09-01T05:17:27.721Z,101435.34
2022-09-01T05:20:13.133Z,101438.59
2022-09-01T05:22:58.522Z,101441.75
2022-09-01T05:25:44.220Z,101446.63
2022-09-01T05:28:29.452Z,101435.13
2022-09-01T05:31:14.995Z,101428.38
2022-09-01T05:34:01.138Z,101444.41
2022-09-01T05:36:46.920Z,101453.78
2022-09-01T05:39:32.864Z,101453.47
2022-09-01T05:42:18.076Z,101450.09
2022-09-01T05:45:03.477Z,101448.56
2022-09-01T05:47:48.793Z,101450.75
2022-09-01T05:50:33.942Z,101436.78
2022-09-01T05:53:20.142Z,101426.31
2022-09-01T05:56:09.066Z,101421.88
2022-09-01T06:02:00.138Z,101415.13
2022-09-01T06:04:45.682Z,101397.41
2022-09-01T06:07:31.274Z,101408.00
2022-09-01T06:10:16.383Z,101416.13
2022-09-01T06:13:01.770Z,101397.44
2022-09-01T06:15:49.316Z,101390.84
2022-09-01T06:18:35.369Z,101386.78
2022-09-01T06:21:21.740Z,101374.00
2022-09-01T06:24:07.008Z,101360.25
2022-09-01T06:26:52.336Z,101364.78
2022-09-01T06:29:38.305Z,101355.38
2022-09-01T06:32:23.639Z,101360.72
2022-09-01T06:35:09.227Z,101363.38
2022-09-01T06:37:54.316Z,101352.13
2022-09-01T06:40:40.060Z,101365.19
2022-09-01T06:43:25.268Z,101356.59
2022-09-01T06:46:10.378Z,101372.28
2022-09-01T06:48:56.689Z,101365.38
2022-09-01T06:51:41.937Z,101364.47
2022-09-01T06:54:27.139Z,101368.84
2022-09-01T07:00:18.856Z,101344.31
2022-09-01T07:03:04.497Z,101353.03
2022-09-01T07:06:05.647Z,101324.94
2022-09-01T07:12:26.498Z,101348.31
2022-09-01T07:18:06.630Z,101326.63
2022-09-01T07:21:36.276Z,101322.88
2022-09-01T07:24:10.924Z,101313.00
2022-09-01T07:26:56.522Z,101300.97
2022-09-01T07:29:42.440Z,101302.75
2022-09-01T07:35:32.669Z,101304.09
2022-09-01T07:42:30.687Z,101304.00
2022-09-01T07:44:31.229Z,101281.88
2022-09-01T07:47:20.660Z,101267.91
2022-09-01T07:50:39.668Z,101284.16
2022-09-01T07:53:29.623Z,101274.75
2022-09-01T07:56:18.396Z,101263.72
2022-09-01T07:59:03.696Z,101282.06
2022-09-01T08:01:48.833Z,101299.47
2022-09-01T08:04:34.208Z,101276.81
2022-09-01T08:07:19.253Z,101284.38
2022-09-01T08:10:06.477Z,101293.25
2022-09-01T08:12:58.995Z,101290.25
2022-09-01T08:18:50.080Z,101268.72
2022-09-01T08:21:35.133Z,101276.19
2022-09-01T08:24:20.522Z,101280.22
2022-09-01T08:27:05.512Z,101267.84
2022-09-01T08:29:50.484Z,101279.28
2022-09-01T08:32:37.020Z,101275.25
2022-09-01T08:35:22.325Z,101273.03
2022-09-01T08:38:08.750Z,101256.19
2022-09-01T08:40:57.579Z,101276.78
2022-09-01T08:44:21.122Z,101278.75
2022-09-01T08:47:16.273Z,101257.63
2022-09-01T08:50:01.834Z,101263.47
2022-09-01T08:53:09.734Z,101266.94
2022-09-01T08:55:58.521Z,101277.28
2022-09-01T08:58:44.102Z,101291.34
2022-09-01T09:01:40.485Z,101319.28
2022-09-01T09:05:22.134Z,101342.88
2022-09-01T09:08:41.535Z,101326.06
2022-09-01T09:11:42.232Z,101321.47
2022-09-01T09:14:53.072Z,101338.50
2022-09-01T09:17:46.133Z,101335.91
2022-09-01T09:20:31.400Z,101323.50
2022-09-01T09:23:29.651Z,101293.19
2022-09-01T09:26:15.951Z,101316.69
2022-09-01T09:29:06.887Z,101305.84
2022-09-01T09:32:06.958Z,101293.47
2022-09-01T09:35:31.813Z,101271.63
2022-09-01T09:38:21.845Z,101246.75
2022-09-01T09:41:25.454Z,101286.41
2022-09-01T09:44:32.169Z,101304.38
2022-09-01T09:47:44.462Z,101314.78
2022-09-01T09:50:38.099Z,101325.91
2022-09-01T09:53:24.086Z,101268.03
2022-09-01T09:56:15.120Z,101301.91
2022-09-01T09:59:00.107Z,101296.31
2022-09-01T10:01:45.250Z,101265.28
2022-09-01T10:04:38.582Z,101263.38
2022-09-01T10:07:36.437Z,101261.94
2022-09-01T10:10:58.520Z,101247.06
2022-09-01T10:13:43.963Z,101231.44
2022-09-01T10:16:34.631Z,101237.44
2022-09-01T10:19:20.874Z,101252.38
2022-09-01T10:22:08.271Z,101246.81
2022-09-01T10:24:53.542Z,101257.94
2022-09-01T10:27:43.281Z,101247.94
2022-09-01T10:30:30.390Z,101235.75
2022-09-01T10:33:20.954Z,101253.38
2022-09-01T10:36:08.140Z,101243.28
2022-09-01T10:38:59.941Z,101235.59
2022-09-01T10:42:00.743Z,101235.53
2022-09-01T10:44:57.836Z,101214.66
2022-09-01T10:47:43.453Z,101227.47
2022-09-01T10:50:35.477Z,101223.69
2022-09-01T10:53:34.002Z,101224.34
2022-09-01T10:56:51.225Z,101227.06
2022-09-01T10:59:41.767Z,101182.56
2022-09-01T11:02:35.965Z,101207.06
2022-09-01T11:05:21.531Z,101176.28
2022-09-01T11:08:29.527Z,101213.59
2022-09-01T11:11:36.543Z,101224.75
2022-09-01T11:14:26.307Z,101196.47
2022-09-01T11:17:43.547Z,101188.81
2022-09-01T11:20:28.835Z,101200.78
2022-09-01T11:23:28.039Z,101197.94
2022-09-01T11:26:31.414Z,101178.56
2022-09-01T11:29:55.509Z,101167.94
2022-09-01T11:32:46.760Z,101178.22
2022-09-01T11:35:32.599Z,101195.41
2022-09-01T11:38:19.028Z,101203.16
2022-09-01T11:41:04.219Z,101194.63
2022-09-01T11:43:54.251Z,101217.00
2022-09-01T11:46:39.963Z,101214.28
2022-09-01T11:49:36.713Z,101234.13
2022-09-01T11:52:25.331Z,101221.78
2022-09-01T11:55:10.855Z,101233.66
2022-09-01T11:57:56.342Z,101201.78
2022-09-01T12:00:42.521Z,101205.66
2022-09-01T12:03:29.592Z,101210.91
2022-09-01T12:06:21.594Z,101207.13
2022-09-01T12:09:06.697Z,101212.88
2022-09-01T12:11:51.653Z,101195.34
2022-09-01T12:15:02.117Z,101162.09
2022-09-01T12:17:41.932Z,101178.56
2022-09-01T12:20:31.360Z,101173.03
2022-09-01T12:23:33.051Z,101205.53
2022-09-01T12:26:24.696Z,101156.22
2022-09-01T12:29:12.379Z,101173.66
2022-09-01T12:31:58.484Z,101154.94
2022-09-01T12:35:12.604Z,101133.91
2022-09-01T12:38:19.658Z,101140.34
2022-09-01T12:44:50.808Z,101175.13
2022-09-01T12:47:36.199Z,101161.22
2022-09-01T12:50:21.276Z,101167.41
2022-09-01T12:53:15.969Z,101158.78
2022-09-01T12:56:21.786Z,101178.50
2022-09-01T12:59:15.527Z,101151.13
2022-09-01T13:02:27.538Z,101150.63
2022-09-01T13:05:31.806Z,101161.66
2022-09-01T13:08:22.296Z,101144.03
2022-09-01T13:11:11.383Z,101151.03
2022-09-01T13:13:56.618Z,101133.97
2022-09-01T13:16:41.801Z,101164.28
2022-09-01T13:19:30.164Z,101147.47
2022-09-01T13:22:15.885Z,101156.97
2022-09-01T13:25:01.725Z,101165.66
2022-09-01T13:27:47.349Z,101164.88
2022-09-01T13:30:32.705Z,101141.94
2022-09-01T13:33:19.580Z,101141.88
2022-09-01T13:39:19.275Z,101158.13
2022-09-01T13:42:05.931Z,101153.09
2022-09-01T13:44:55.199Z,101165.06
2022-09-01T13:53:54.060Z,101165.38
2022-09-01T13:56:39.510Z,101137.66
2022-09-01T13:59:25.188Z,101146.06
2022-09-01T14:02:10.487Z,101137.88
2022-09-01T14:04:55.559Z,101130.47
2022-09-01T14:07:40.881Z,101122.31
2022-09-01T14:10:28.933Z,101119.81
2022-09-01T14:13:14.673Z,101122.34
2022-09-01T14:16:00.155Z,101100.16
2022-09-01T14:18:46.036Z,101113.22
2022-09-01T14:21:31.062Z,101119.44
2022-09-01T14:24:16.843Z,101118.00
2022-09-01T14:27:03.113Z,101095.06
2022-09-01T14:32:34.940Z,101126.00
2022-09-01T14:35:22.973Z,101125.31
2022-09-01T14:38:08.587Z,101080.53
2022-09-01T14:40:53.521Z,101120.00
2022-09-01T14:43:39.014Z,101107.66
2022-09-01T14:46:24.388Z,101103.31
2022-09-01T14:49:09.963Z,101094.56
2022-09-01T14:52:11.359Z,101077.06
2022-09-01T14:54:56.821Z,101083.22
2022-09-01T14:57:41.976Z,101068.38
2022-09-01T15:00:28.157Z,101072.91
2022-09-01T15:03:14.050Z,101068.66
2022-09-01T15:05:59.371Z,101078.38
2022-09-01T15:08:45.452Z,101076.31
2022-09-01T15:11:30.696Z,101080.97
2022-09-01T15:14:16.542Z,101100.94
2022-09-01T15:17:01.858Z,101084.06
2022-09-01T15:19:46.840Z,101088.19
2022-09-01T15:22:31.860Z,101090.31
2022-09-01T15:25:18.319Z,101081.63
2022-09-01T15:28:04.721Z,101085.03
2022-09-01T15:30:51.738Z,101066.13
2022-09-01T15:33:40.593Z,101052.81
2022-09-01T15:36:27.760Z,101047.53
2022-09-01T15:39:12.998Z,101071.50
2022-09-01T15:41:57.963Z,101058.78
2022-09-01T15:44:43.332Z,101057.53
2022-09-01T15:47:30.101Z,101060.56
2022-09-01T15:50:21.635Z,101060.22
2022-09-01T15:53:08.428Z,101058.53
2022-09-01T15:55:53.891Z,101055.81
2022-09-01T15:58:59.502Z,101064.81
2022-09-01T16:01:45.719Z,101055.88
2022-09-01T16:04:30.755Z,101062.91
2022-09-01T16:07:15.738Z,101059.47
2022-09-01T16:10:01.191Z,101075.88
2022-09-01T16:12:46.413Z,101044.19
2022-09-01T16:15:31.986Z,101056.50
2022-09-01T16:18:37.806Z,101042.25
2022-09-01T16:21:35.353Z,101051.34
2022-09-01T16:24:21.022Z,101050.59
2022-09-01T16:27:09.271Z,101057.38
2022-09-01T16:30:03.352Z,101055.06
2022-09-01T16:32:48.997Z,101047.03
2022-09-01T16:35:56.017Z,101046.16
2022-09-01T16:38:47.618Z,101044.47
2022-09-01T16:42:06.207Z,101013.97
2022-09-01T16:45:08.891Z,101028.78
2022-09-01T16:47:57.034Z,101013.25
2022-09-01T16:50:55.378Z,101011.41
2022-09-01T16:53:57.198Z,101002.44
2022-09-01T16:57:04.988Z,101026.00
2022-09-01T16:59:55.872Z,101019.66
2022-09-01T17:03:06.093Z,101018.06
2022-09-01T17:06:16.853Z,101022.97
2022-09-01T17:09:15.189Z,100994.13
2022-09-01T17:12:03.358Z,101007.34
2022-09-01T17:14:55.533Z,101013.16
2022-09-01T17:17:55.050Z,101008.38
2022-09-01T17:20:43.715Z,101019.25
2022-09-01T17:23:50.405Z,101008.28
2022-09-01T17:26:35.535Z,101007.63
2022-09-01T17:29:27.933Z,101020.63
2022-09-01T17:32:25.450Z,100997.63
2022-09-01T17:35:19.520Z,101008.53
2022-09-01T17:38:23.721Z,101020.44
2022-09-01T17:41:36.331Z,101009.50
2022-09-01T17:44:46.959Z,101031.53
2022-09-01T17:47:55.326Z,101010.16
2022-09-01T17:51:05.749Z,101019.75
2022-09-01T17:54:03.086Z,101014.84
2022-09-01T17:57:05.008Z,101016.13
2022-09-01T18:00:25.264Z,101020.09
2022-09-01T18:03:46.286Z,101021.78
2022-09-01T18:06:50.805Z,101016.63
2022-09-01T18:09:45.093Z,101024.00
2022-09-01T18:12:38.345Z,101020.56
2022-09-01T18:15:24.340Z,101011.97
2022-09-01T18:18:40.257Z,101031.13
2022-09-01T18:21:32.080Z,101029.56
2022-09-01T18:25:02.757Z,101024.28
2022-09-01T18:27:48.076Z,101026.31
2022-09-01T18:31:05.450Z,101029.09
2022-09-01T18:34:09.725Z,101025.84
2022-09-01T18:37:13.370Z,101029.59
2022-09-01T18:40:21.523Z,101026.31
2022-09-01T18:43:14.153Z,101028.09
2022-09-01T18:46:08.729Z,101037.84
2022-09-01T18:49:11.958Z,101054.50
2022-09-01T18:52:20.088Z,101037.22
2022-09-01T18:55:26.141Z,101047.13
2022-09-01T18:58:31.820Z,101054.19
2022-09-01T19:01:28.802Z,101053.47
2022-09-01T19:04:34.111Z,101056.44
2022-09-01T19:07:31.585Z,101071.22
2022-09-01T19:10:20.783Z,101067.63
2022-09-01T19:13:33.871Z,101071.94
2022-09-01T19:16:44.504Z,101058.16
2022-09-01T19:20:01.631Z,101074.88
2022-09-01T19:22:56.023Z,101078.63
2022-09-01T19:25:42.012Z,101068.03
2022-09-01T19:28:40.694Z,101077.06
2022-09-01T19:31:36.194Z,101084.09
2022-09-01T19:34:56.446Z,101092.16
2022-09-01T19:37:41.845Z,101091.16
2022-09-01T19:40:32.318Z,101089.50
2022-09-01T19:43:17.701Z,101088.66
2022-09-01T19:46:20.778Z,101086.06
2022-09-01T19:49:36.427Z,101089.50
2022-09-01T19:52:22.014Z,101085.16
2022-09-01T19:55:16.710Z,101079.03
2022-09-01T19:58:10.503Z,101074.75
2022-09-01T20:00:59.677Z,101078.25
2022-09-01T20:03:50.436Z,101080.16
2022-09-01T20:06:41.416Z,101085.34
2022-09-01T20:09:56.730Z,101070.59
2022-09-01T20:12:53.359Z,101082.81
2022-09-01T20:15:54.086Z,101080.19
2022-09-01T20:18:50.153Z,101092.53
2022-09-01T20:21:43.965Z,101093.44
2022-09-01T20:24:32.362Z,101085.94
2022-09-01T20:27:29.487Z,101097.41
2022-09-01T20:30:21.540Z,101091.28
2022-09-01T20:33:19.615Z,101105.28
2022-09-01T20:36:12.641Z,101098.25
2022-09-01T20:39:03.833Z,101098.34
2022-09-01T20:42:01.918Z,101094.25
2022-09-01T20:44:56.395Z,101104.72
2022-09-01T20:47:46.488Z,101087.22
2022-09-01T20:50:54.364Z,101086.31
2022-09-01T20:54:07.029Z,101080.19
2022-09-01T20:57:31.604Z,101084.53
2022-09-01T21:00:26.064Z,101095.13
2022-09-01T21:03:38.134Z,101084.59
2022-09-01T21:06:48.815Z,101086.38
2022-09-01T21:09:43.097Z,101086.38
2022-09-01T21:12:28.170Z,101086.47
2022-09-01T21:15:44.278Z,101082.94
2022-09-01T21:18:38.519Z,101088.22
2022-09-01T21:21:35.851Z,101090.84
2022-09-01T21:24:21.253Z,101083.06
2022-09-01T21:27:13.194Z,101085.69
2022-09-01T21:30:01.730Z,101086.56
2022-09-01T21:32:47.210Z,101089.19
2022-09-01T21:35:32.608Z,101090.13
2022-09-01T21:38:18.188Z,101107.63
2022-09-01T21:41:06.815Z,101089.34
2022-09-01T21:43:54.896Z,101088.56
2022-09-01T21:46:40.290Z,101082.44
2022-09-01T21:49:25.633Z,101096.44
2022-09-01T21:52:10.933Z,101099.94
2022-09-01T21:54:56.404Z,101101.66
2022-09-01T21:57:41.795Z,101103.44
2022-09-01T22:00:31.748Z,101113.06
2022-09-01T22:03:17.330Z,101101.72
2022-09-01T22:06:02.372Z,101099.13
2022-09-01T22:08:47.668Z,101113.13
2022-09-01T22:11:35.586Z,101109.66
2022-09-01T22:14:21.572Z,101108.00
2022-09-01T22:17:06.994Z,101113.19
2022-09-01T22:19:52.367Z,101114.09
2022-09-01T22:22:37.838Z,101103.69
2022-09-01T22:25:23.212Z,101121.06
2022-09-01T22:28:09.397Z,101104.50
2022-09-01T22:30:54.426Z,101109.81
2022-09-01T22:33:39.761Z,101103.63
2022-09-01T22:36:32.084Z,101087.16
2022-09-01T22:39:18.350Z,101094.97
2022-09-01T22:42:03.894Z,101092.44
2022-09-01T22:44:49.181Z,101090.63
2022-09-01T22:47:35.327Z,101091.47
2022-09-01T22:50:23.089Z,101097.66
2022-09-01T22:53:08.805Z,101105.50
2022-09-01T22:55:54.228Z,101094.22
2022-09-01T22:58:40.352Z,101094.25
2022-09-01T23:01:27.704Z,101091.63
2022-09-01T23:04:14.726Z,101095.97
2022-09-01T23:06:59.773Z,101089.94
2022-09-01T23:09:44.960Z,101099.53
2022-09-01T23:12:30.069Z,101082.97
2022-09-01T23:15:15.520Z,101102.16
2022-09-01T23:18:00.954Z,101098.72
2022-09-01T23:20:46.368Z,101098.72
2022-09-01T23:23:32.901Z,101091.75
2022-09-01T23:26:18.515Z,101096.13
2022-09-01T23:29:04.586Z,101109.22
2022-09-01T23:31:49.942Z,101101.38
2022-09-01T23:34:35.395Z,101105.75
2022-09-01T23:37:20.729Z,101094.41
2022-09-01T23:40:07.019Z,101101.38
2022-09-01T23:42:51.985Z,101100.53
2022-09-01T23:45:42.603Z,101096.19
2022-09-01T23:48:27.929Z,101093.56
2022-09-01T23:51:13.867Z,101102.25
2022-09-01T23:53:59.593Z,101087.44
2022-09-01T23:56:45.010Z,101093.59
2022-09-01T23:59:30.065Z,101081.41
